createdAt,value
2018-11-12T00:00:20.346Z,95758.59
2018-11-12T00:02:54.961Z,95749.73
2018-11-12T00:05:24.126Z,95749.67
2018-11-12T00:07:53.333Z,95756.07
2018-11-12T00:10:22.477Z,95753.05
2018-11-12T00:12:51.714Z,95748.02
2018-11-12T00:15:20.869Z,95746.36
2018-11-12T00:17:50.066Z,95743.09
2018-11-12T00:20:19.473Z,95744.22
2018-11-12T00:22:48.801Z,95759.06
2018-11-12T00:25:17.982Z,95764.95
2018-11-12T00:27:47.167Z,95765.61
2018-11-12T00:30:18.616Z,95763.52
2018-11-12T00:32:48.461Z,95768.05
2018-11-12T00:35:17.609Z,95776.56
2018-11-12T00:37:46.809Z,95774.42
2018-11-12T00:40:17.173Z,95772.84
2018-11-12T00:42:46.863Z,95778.84
2018-11-12T00:45:16.406Z,95779.15
2018-11-12T00:47:45.625Z,95783.66
2018-11-12T00:50:15.550Z,95780.18
2018-11-12T00:52:44.756Z,95785.31
2018-11-12T00:55:14.988Z,95781.27
2018-11-12T00:57:44.769Z,95782.59
2018-11-12T01:00:16.497Z,95790.52
2018-11-12T01:02:46.899Z,95792.82
2018-11-12T01:05:16.688Z,95804.23
2018-11-12T01:07:46.416Z,95799.80
2018-11-12T01:10:16.725Z,95798.20
2018-11-12T01:12:46.172Z,95795.42
2018-11-12T01:15:16.498Z,95794.22
2018-11-12T01:17:45.881Z,95799.84
2018-11-12T01:20:16.089Z,95792.31
2018-11-12T01:22:45.299Z,95791.74
2018-11-12T01:25:15.131Z,95788.63
2018-11-12T01:27:45.072Z,95784.45
2018-11-12T01:30:16.394Z,95779.25
2018-11-12T01:32:45.865Z,95779.04
2018-11-12T01:35:16.093Z,95773.66
2018-11-12T01:37:45.340Z,95774.87
2018-11-12T01:40:15.284Z,95774.74
2018-11-12T01:42:45.361Z,95762.08
2018-11-12T01:45:17.158Z,95763.37
2018-11-12T01:47:47.501Z,95770.22
2018-11-12T01:50:17.103Z,95768.01
2018-11-12T01:52:47.029Z,95768.31
2018-11-12T01:55:17.339Z,95759.39
2018-11-12T01:57:46.573Z,95753.55
2018-11-12T02:00:18.285Z,95760.96
2018-11-12T02:02:48.630Z,95761.98
2018-11-12T02:05:18.217Z,95767.44
2018-11-12T02:07:47.417Z,95769.55
2018-11-12T02:10:17.574Z,95764.80
2018-11-12T02:12:46.745Z,95774.11
2018-11-12T02:15:18.087Z,95768.33
2018-11-12T02:17:47.842Z,95771.00
2018-11-12T02:20:18.213Z,95769.23
2018-11-12T02:22:48.944Z,95769.84
2018-11-12T02:25:17.772Z,95764.98
2018-11-12T02:27:46.928Z,95772.97
2018-11-12T02:30:48.695Z,95771.76
2018-11-12T02:33:18.608Z,95771.42
2018-11-12T02:35:47.704Z,95773.39
2018-11-12T02:38:16.825Z,95777.90
2018-11-12T02:40:46.006Z,95788.21
2018-11-12T02:43:15.146Z,95779.37
2018-11-12T02:45:44.325Z,95778.05
2018-11-12T02:48:13.513Z,95769.42
2018-11-12T02:50:42.650Z,95767.97
2018-11-12T02:53:11.850Z,95767.33
2018-11-12T02:55:41.085Z,95770.92
2018-11-12T02:58:10.212Z,95768.71
2018-11-12T03:00:39.383Z,95775.22
2018-11-12T03:03:08.554Z,95769.20
2018-11-12T03:05:37.681Z,95771.72
2018-11-12T03:08:06.823Z,95772.95
2018-11-12T03:10:35.953Z,95770.17
2018-11-12T03:13:05.591Z,95772.22
2018-11-12T03:15:34.757Z,95771.06
2018-11-12T03:18:03.936Z,95772.56
2018-11-12T03:20:33.126Z,95775.97
2018-11-12T03:23:02.317Z,95773.31
2018-11-12T03:25:31.528Z,95770.59
2018-11-12T03:28:00.783Z,95773.83
2018-11-12T03:30:30.037Z,95777.00
2018-11-12T03:32:59.266Z,95777.92
2018-11-12T03:35:28.463Z,95780.71
2018-11-12T03:37:57.629Z,95785.14
2018-11-12T03:40:26.853Z,95789.27
2018-11-12T03:42:56.001Z,95795.95
2018-11-12T03:45:25.911Z,95791.72
2018-11-12T03:47:55.048Z,95793.12
2018-11-12T03:50:25.325Z,95792.06
2018-11-12T03:52:54.525Z,95792.78
2018-11-12T03:55:24.241Z,95798.84
2018-11-12T03:57:53.408Z,95797.62
2018-11-12T04:00:38.027Z,95794.48
2018-11-12T04:03:07.209Z,95800.31
2018-11-12T04:05:36.350Z,95800.38
2018-11-12T04:08:05.609Z,95806.95
2018-11-12T04:10:34.776Z,95804.78
2018-11-12T04:13:03.995Z,95806.92
2018-11-12T04:15:33.168Z,95814.25
2018-11-12T04:18:02.361Z,95810.16
2018-11-12T04:20:31.549Z,95809.98
2018-11-12T04:23:02.866Z,95801.64
2018-11-12T04:25:33.822Z,95798.50
2018-11-12T04:28:03.054Z,95792.52
2018-11-12T04:30:32.213Z,95799.48
2018-11-12T04:33:01.401Z,95797.17
2018-11-12T04:35:30.585Z,95787.89
2018-11-12T04:38:00.035Z,95778.64
2018-11-12T04:40:29.197Z,95776.34
2018-11-12T04:42:58.389Z,95778.58
2018-11-12T04:45:30.732Z,95783.08
2018-11-12T04:47:59.868Z,95783.03
2018-11-12T04:50:29.465Z,95780.49
2018-11-12T04:52:58.665Z,95780.48
2018-11-12T04:55:27.883Z,95777.08
2018-11-12T04:57:57.006Z,95772.09
2018-11-12T05:00:27.372Z,95783.47
2018-11-12T05:02:56.508Z,95789.88
2018-11-12T05:05:26.821Z,95780.88
2018-11-12T05:07:55.956Z,95779.46
2018-11-12T05:10:26.138Z,95777.90
2018-11-12T05:12:55.618Z,95771.42
2018-11-12T05:15:25.441Z,95770.25
2018-11-12T05:17:54.881Z,95762.61
2018-11-12T05:20:26.388Z,95779.99
2018-11-12T05:22:55.522Z,95781.25
2018-11-12T05:25:24.765Z,95784.13
2018-11-12T05:27:53.900Z,95785.59
2018-11-12T05:30:25.153Z,95789.34
2018-11-12T05:32:54.533Z,95787.44
2018-11-12T05:35:25.789Z,95789.11
2018-11-12T05:37:55.349Z,95787.95
2018-11-12T05:40:26.734Z,95788.09
2018-11-12T05:42:55.913Z,95787.64
2018-11-12T05:45:26.683Z,95787.50
2018-11-12T05:47:55.828Z,95790.60
2018-11-12T05:50:30.116Z,95789.13
2018-11-12T05:53:00.647Z,95794.33
2018-11-12T05:55:30.649Z,95797.89
2018-11-12T05:58:00.236Z,95793.04
2018-11-12T06:00:30.865Z,95799.99
2018-11-12T06:03:00.092Z,95795.30
2018-11-12T06:05:29.365Z,95797.80
2018-11-12T06:07:58.520Z,95800.89
2018-11-12T06:10:28.790Z,95802.30
2018-11-12T06:12:57.945Z,95796.98
2018-11-12T06:15:27.104Z,95791.01
2018-11-12T06:17:56.237Z,95786.40
2018-11-12T06:20:29.573Z,95784.80
2018-11-12T06:22:58.760Z,95795.58
2018-11-12T06:25:30.238Z,95802.06
2018-11-12T06:27:59.477Z,95803.11
2018-11-12T06:30:30.145Z,95816.00
2018-11-12T06:32:59.303Z,95819.09
2018-11-12T06:35:28.537Z,95821.07
2018-11-12T06:37:57.956Z,95820.69
2018-11-12T06:40:27.979Z,95826.39
2018-11-12T06:42:57.182Z,95818.57
2018-11-12T06:45:27.474Z,95817.33
2018-11-12T06:47:57.349Z,95821.38
2018-11-12T06:50:27.833Z,95817.90
2018-11-12T06:52:57.304Z,95825.13
2018-11-12T06:55:26.740Z,95825.48
2018-11-12T06:57:56.154Z,95819.34
2018-11-12T07:00:29.637Z,95816.09
2018-11-12T07:02:59.045Z,95818.06
2018-11-12T07:05:28.651Z,95813.61
2018-11-12T07:07:57.842Z,95821.16
2018-11-12T07:10:27.952Z,95824.63
2018-11-12T07:12:57.905Z,95828.37
2018-11-12T07:15:27.999Z,95819.76
2018-11-12T07:17:57.231Z,95819.46
2018-11-12T07:20:27.957Z,95816.87
2018-11-12T07:22:57.189Z,95809.34
2018-11-12T07:25:27.652Z,95805.08
2018-11-12T07:27:56.792Z,95799.14
2018-11-12T07:30:26.998Z,95810.84
2018-11-12T07:32:58.109Z,95811.49
2018-11-12T07:35:27.437Z,95813.57
2018-11-12T07:37:57.332Z,95814.87
2018-11-12T07:40:26.578Z,95808.73
2018-11-12T07:42:55.723Z,95810.47
2018-11-12T07:45:26.220Z,95798.98
2018-11-12T07:47:56.161Z,95793.89
2018-11-12T07:50:26.683Z,95789.03
2018-11-12T07:52:55.869Z,95795.32
2018-11-12T07:55:26.226Z,95795.50
2018-11-12T07:57:56.245Z,95799.22
2018-11-12T08:00:27.578Z,95801.87
2018-11-12T08:03:02.210Z,95794.61
2018-11-12T08:05:31.488Z,95797.58
2018-11-12T08:08:00.681Z,95797.31
2018-11-12T08:10:29.871Z,95786.62
2018-11-12T08:12:59.038Z,95780.70
2018-11-12T08:15:28.427Z,95777.45
2018-11-12T08:17:58.015Z,95787.30
2018-11-12T08:20:28.049Z,95788.78
2018-11-12T08:22:57.251Z,95792.45
2018-11-12T08:25:26.549Z,95789.95
2018-11-12T08:27:55.726Z,95791.44
2018-11-12T08:30:26.318Z,95785.78
2018-11-12T08:32:56.735Z,95793.33
2018-11-12T08:35:26.178Z,95777.78
2018-11-12T08:37:55.792Z,95775.91
2018-11-12T08:40:26.329Z,95764.03
2018-11-12T08:42:55.397Z,95782.30
2018-11-12T08:45:24.548Z,95785.89
2018-11-12T08:47:54.816Z,95781.38
2018-11-12T08:50:25.190Z,95786.13
2018-11-12T08:52:55.236Z,95787.83
2018-11-12T08:55:26.646Z,95783.62
2018-11-12T08:57:57.235Z,95784.44
2018-11-12T09:00:27.081Z,95784.92
2018-11-12T09:02:56.307Z,95790.02
2018-11-12T09:05:26.789Z,95793.97
2018-11-12T09:07:57.323Z,95791.08
2018-11-12T09:10:28.052Z,95795.38
2018-11-12T09:12:57.226Z,95790.34
2018-11-12T09:15:26.475Z,95786.20
2018-11-12T09:17:54.940Z,95786.10
2018-11-12T09:20:24.890Z,95791.36
2018-11-12T09:22:53.812Z,95782.23
2018-11-12T09:25:23.422Z,95780.61
2018-11-12T09:27:51.896Z,95776.39
2018-11-12T09:30:21.592Z,95780.09
2018-11-12T09:32:50.118Z,95785.28
2018-11-12T09:35:25.736Z,95783.42
2018-11-12T09:37:55.683Z,95786.72
2018-11-12T09:40:28.986Z,95788.92
2018-11-12T09:42:58.391Z,95787.89
2018-11-12T09:45:27.526Z,95783.33
2018-11-12T09:47:56.736Z,95790.25
2018-11-12T09:50:26.685Z,95788.00
2018-11-12T09:52:56.813Z,95789.05
2018-11-12T09:55:26.892Z,95799.06
2018-11-12T09:57:57.477Z,95795.10
2018-11-12T10:00:26.780Z,95790.66
2018-11-12T10:02:57.338Z,95794.94
2018-11-12T10:05:26.480Z,95799.94
2018-11-12T10:08:14.270Z,95800.00
2018-11-12T10:10:52.050Z,95806.85
2018-11-12T10:13:27.781Z,95811.46
2018-11-12T10:15:58.023Z,95819.73
2018-11-12T10:18:22.992Z,95814.98
2018-11-12T10:20:51.599Z,95815.17
2018-11-12T10:23:20.608Z,95808.48
2018-11-12T10:25:49.297Z,95805.09
2018-11-12T10:28:18.989Z,95808.30
2018-11-12T10:30:47.524Z,95817.57
2018-11-12T10:33:16.002Z,95814.13
2018-11-12T10:35:44.497Z,95804.64
2018-11-12T10:38:13.345Z,95800.81
2018-11-12T10:40:41.974Z,95802.48
2018-11-12T10:43:10.536Z,95817.11
2018-11-12T10:45:39.014Z,95812.05
2018-11-12T10:48:07.840Z,95804.23
2018-11-12T10:50:36.256Z,95810.30
2018-11-12T10:53:05.547Z,95812.33
2018-11-12T10:55:34.228Z,95801.51
2018-11-12T10:58:02.855Z,95802.91
2018-11-12T11:00:37.960Z,95803.67
2018-11-12T11:03:13.841Z,95802.66
2018-11-12T11:05:43.536Z,95790.98
2018-11-12T11:08:12.083Z,95786.00
2018-11-12T11:10:40.512Z,95780.83
2018-11-12T11:13:09.152Z,95782.00
2018-11-12T11:15:38.215Z,95787.84
2018-11-12T11:18:06.881Z,95783.02
2018-11-12T11:20:35.386Z,95779.35
2018-11-12T11:23:04.116Z,95781.97
2018-11-12T11:25:32.934Z,95791.26
2018-11-12T11:28:01.800Z,95788.23
2018-11-12T11:30:30.309Z,95785.59
2018-11-12T11:32:58.807Z,95778.00
2018-11-12T11:35:27.284Z,95776.64
2018-11-12T11:37:55.795Z,95774.98
2018-11-12T11:40:25.680Z,95772.94
2018-11-12T11:42:54.746Z,95778.86
2018-11-12T11:45:24.105Z,95779.08
2018-11-12T11:47:53.718Z,95783.50
2018-11-12T11:50:25.287Z,95778.84
2018-11-12T11:52:54.341Z,95782.38
2018-11-12T11:55:24.468Z,95774.39
2018-11-12T11:57:54.085Z,95775.73
2018-11-12T12:00:24.701Z,95770.49
2018-11-12T12:02:54.885Z,95768.19
2018-11-12T12:05:24.432Z,95769.99
2018-11-12T12:07:54.450Z,95771.98
2018-11-12T12:10:23.614Z,95760.39
2018-11-12T12:12:53.361Z,95768.20
2018-11-12T12:15:23.383Z,95759.17
2018-11-12T12:17:52.696Z,95755.73
2018-11-12T12:20:23.208Z,95755.65
2018-11-12T12:22:52.749Z,95750.84
2018-11-12T12:25:21.921Z,95747.82
2018-11-12T12:27:51.405Z,95743.89
2018-11-12T12:30:22.890Z,95745.34
2018-11-12T12:32:52.993Z,95754.68
2018-11-12T12:35:22.115Z,95753.32
2018-11-12T12:37:51.317Z,95756.55
2018-11-12T12:40:21.578Z,95760.98
2018-11-12T12:42:50.750Z,95762.36
2018-11-12T12:45:21.455Z,95761.23
2018-11-12T12:47:50.917Z,95755.93
2018-11-12T12:50:20.417Z,95754.14
2018-11-12T12:52:49.645Z,95755.06
2018-11-12T12:55:19.352Z,95755.61
2018-11-12T12:57:48.782Z,95753.89
2018-11-12T13:00:20.017Z,95750.63
2018-11-12T13:02:49.263Z,95747.91
2018-11-12T13:05:18.502Z,95750.80
2018-11-12T13:07:47.702Z,95752.58
2018-11-12T13:10:18.325Z,95751.10
2018-11-12T13:12:47.554Z,95756.91
2018-11-12T13:15:17.965Z,95755.37
2018-11-12T13:17:48.062Z,95755.06
2018-11-12T13:20:18.689Z,95750.16
2018-11-12T13:22:48.601Z,95753.70
2018-11-12T13:25:17.901Z,95759.16
2018-11-12T13:27:47.529Z,95761.05
2018-11-12T13:30:18.131Z,95763.50
2018-11-12T13:32:47.549Z,95764.05
2018-11-12T13:35:18.525Z,95767.84
2018-11-12T13:37:47.721Z,95772.63
2018-11-12T13:40:18.303Z,95775.84
2018-11-12T13:42:49.048Z,95773.09
2018-11-12T13:45:18.269Z,95780.65
2018-11-12T13:47:47.733Z,95789.55
2018-11-12T13:50:18.265Z,95790.66
2018-11-12T13:52:47.835Z,95792.63
2018-11-12T13:55:18.310Z,95790.95
2018-11-12T13:57:47.497Z,95796.64
2018-11-12T14:00:18.068Z,95798.99
2018-11-12T14:02:47.969Z,95806.25
2018-11-12T14:05:18.705Z,95808.26
2018-11-12T14:07:48.249Z,95814.02
2018-11-12T14:10:18.746Z,95821.34
2018-11-12T14:12:48.331Z,95833.47
2018-11-12T14:15:19.663Z,95835.86
2018-11-12T14:17:49.400Z,95844.34
2018-11-12T14:20:18.818Z,95844.48
2018-11-12T14:22:47.899Z,95846.55
2018-11-12T14:25:18.036Z,95850.45
2018-11-12T14:27:48.883Z,95858.58
2018-11-12T14:30:19.705Z,95863.11
2018-11-12T14:32:48.873Z,95859.48
2018-11-12T14:35:18.057Z,95864.92
2018-11-12T14:37:47.503Z,95868.84
2018-11-12T14:40:17.721Z,95867.95
2018-11-12T14:42:46.935Z,95862.81
2018-11-12T14:45:17.360Z,95867.34
2018-11-12T14:47:46.963Z,95871.59
2018-11-12T14:50:16.165Z,95866.70
2018-11-12T14:52:45.425Z,95865.42
2018-11-12T14:55:15.642Z,95865.26
2018-11-12T14:57:44.822Z,95858.47
2018-11-12T15:00:21.635Z,95863.22
2018-11-12T15:02:50.990Z,95867.89
2018-11-12T15:05:21.687Z,95876.83
2018-11-12T15:07:50.828Z,95884.44
2018-11-12T15:10:20.165Z,95879.13
2018-11-12T15:12:50.029Z,95876.19
2018-11-12T15:15:19.200Z,95886.19
2018-11-12T15:17:48.377Z,95884.07
2018-11-12T15:20:18.936Z,95877.63
2018-11-12T15:22:48.207Z,95885.70
2018-11-12T15:25:25.507Z,95896.46
2018-11-12T15:27:54.762Z,95899.17
2018-11-12T15:30:25.052Z,95898.13
2018-11-12T15:32:55.317Z,95895.70
2018-11-12T15:35:24.572Z,95886.84
2018-11-12T15:37:53.834Z,95894.11
2018-11-12T15:40:23.046Z,95911.02
2018-11-12T15:42:52.244Z,95912.34
2018-11-12T15:45:22.855Z,95916.92
2018-11-12T15:47:52.165Z,95908.59
2018-11-12T15:50:33.085Z,95912.62
2018-11-12T15:53:02.298Z,95914.77
2018-11-12T15:55:31.499Z,95921.69
2018-11-12T15:58:00.695Z,95929.44
2018-11-12T16:00:29.882Z,95931.27
2018-11-12T16:02:59.069Z,95933.95
2018-11-12T16:05:28.261Z,95932.86
2018-11-12T16:07:57.535Z,95929.60
2018-11-12T16:10:26.693Z,95929.08
2018-11-12T16:12:55.909Z,95939.22
2018-11-12T16:15:25.128Z,95937.53
2018-11-12T16:17:54.361Z,95931.08
2018-11-12T16:20:27.512Z,95933.98
2018-11-12T16:22:57.712Z,95940.95
2018-11-12T16:25:27.573Z,95934.24
2018-11-12T16:27:56.701Z,95941.45
2018-11-12T16:30:25.946Z,95936.86
2018-11-12T16:32:55.165Z,95941.09
2018-11-12T16:35:25.262Z,95945.38
2018-11-12T16:37:55.430Z,95944.81
2018-11-12T16:40:24.837Z,95947.14
2018-11-12T16:42:54.055Z,95953.31
2018-11-12T16:45:23.275Z,95963.47
2018-11-12T16:47:52.608Z,95965.62
2018-11-12T16:50:21.768Z,95974.72
2018-11-12T16:52:50.950Z,95988.65
2018-11-12T16:55:21.618Z,95989.67
2018-11-12T16:57:50.930Z,95988.98
2018-11-12T17:00:21.319Z,95992.19
2018-11-12T17:02:50.635Z,96000.46
2018-11-12T17:05:21.009Z,96004.31
2018-11-12T17:07:50.213Z,96006.87
2018-11-12T17:10:20.650Z,96008.91
2018-11-12T17:12:50.061Z,96008.94
2018-11-12T17:15:19.254Z,96010.77
2018-11-12T17:17:48.777Z,96007.53
2018-11-12T17:20:19.095Z,96010.51
2018-11-12T17:22:48.309Z,96013.19
2018-11-12T17:25:18.071Z,96022.14
2018-11-12T17:27:47.606Z,96025.87
2018-11-12T17:30:20.078Z,96029.29
2018-11-12T17:32:49.482Z,96032.45
2018-11-12T17:35:19.759Z,96038.27
2018-11-12T17:37:48.981Z,96040.13
2018-11-12T17:40:20.271Z,96039.04
2018-11-12T17:42:49.994Z,96045.44
2018-11-12T17:45:20.587Z,96045.63
2018-11-12T17:47:50.767Z,96044.25
2018-11-12T17:50:19.957Z,96044.55
2018-11-12T17:52:49.157Z,96054.36
2018-11-12T17:55:18.385Z,96058.59
2018-11-12T17:57:47.677Z,96062.61
2018-11-12T18:00:26.581Z,96065.46
2018-11-12T18:02:55.766Z,96070.86
2018-11-12T18:05:25.009Z,96075.22
2018-11-12T18:07:54.760Z,96074.75
2018-11-12T18:10:23.949Z,96079.45
2018-11-12T18:12:53.234Z,96090.06
2018-11-12T18:15:23.333Z,96090.75
2018-11-12T18:17:52.755Z,96096.66
2018-11-12T18:20:24.719Z,96098.52
2018-11-12T18:22:54.584Z,96096.66
2018-11-12T18:25:23.789Z,96097.14
2018-11-12T18:27:53.414Z,96091.39
2018-11-12T18:30:26.008Z,96091.13
2018-11-12T18:32:56.213Z,96090.34
2018-11-12T18:35:25.549Z,96088.75
2018-11-12T18:37:54.834Z,96090.61
2018-11-12T18:40:25.714Z,96085.38
2018-11-12T18:42:54.965Z,96081.92
2018-11-12T18:45:25.513Z,96075.40
2018-11-12T18:47:54.904Z,96081.58
2018-11-12T18:50:25.535Z,96082.35
2018-11-12T18:52:54.861Z,96077.75
2018-11-12T18:55:24.248Z,96075.40
2018-11-12T18:57:53.801Z,96085.03
2018-11-12T19:00:24.334Z,96079.86
2018-11-12T19:02:54.519Z,96087.44
2018-11-12T19:05:25.849Z,96081.40
2018-11-12T19:07:56.277Z,96085.88
2018-11-12T19:10:29.823Z,96086.44
2018-11-12T19:12:59.014Z,96094.61
2018-11-12T19:15:30.033Z,96088.12
2018-11-12T19:18:01.656Z,96089.67
2018-11-12T19:20:30.961Z,96098.73
2018-11-12T19:23:00.233Z,96097.55
2018-11-12T19:25:29.413Z,96098.83
2018-11-12T19:27:58.649Z,96101.45
2018-11-12T19:30:28.660Z,96099.20
2018-11-12T19:32:57.895Z,96112.55
2018-11-12T19:35:28.536Z,96114.59
2018-11-12T19:37:57.843Z,96117.80
2018-11-12T19:40:28.401Z,96126.84
2018-11-12T19:42:57.945Z,96130.22
2018-11-12T19:45:27.144Z,96129.64
2018-11-12T19:47:56.368Z,96127.06
2018-11-12T19:50:26.860Z,96132.09
2018-11-12T19:52:56.993Z,96128.08
2018-11-12T19:55:26.169Z,96133.06
2018-11-12T19:57:55.327Z,96129.58
2018-11-12T20:00:26.818Z,96130.13
2018-11-12T20:02:57.073Z,96132.25
2018-11-12T20:05:26.270Z,96132.55
2018-11-12T20:07:55.436Z,96132.17
2018-11-12T20:10:24.981Z,96138.33
2018-11-12T20:12:54.203Z,96142.04
2018-11-12T20:15:24.519Z,96141.91
2018-11-12T20:17:54.424Z,96145.50
2018-11-12T20:20:25.053Z,96140.97
2018-11-12T20:22:54.596Z,96148.23
2018-11-12T20:25:23.956Z,96147.08
2018-11-12T20:27:54.077Z,96161.58
2018-11-12T20:30:32.645Z,96148.53
2018-11-12T20:33:01.875Z,96150.11
2018-11-12T20:35:31.109Z,96151.39
2018-11-12T20:38:00.283Z,96151.58
2018-11-12T20:40:29.592Z,96150.33
2018-11-12T20:42:58.788Z,96156.94
2018-11-12T20:45:28.141Z,96152.36
2018-11-12T20:47:57.809Z,96148.77
2018-11-12T20:50:27.005Z,96152.78
2018-11-12T20:52:56.247Z,96156.67
2018-11-12T20:55:25.544Z,96158.01
2018-11-12T20:57:55.202Z,96157.36
2018-11-12T21:00:26.217Z,96154.96
2018-11-12T21:02:56.021Z,96150.33
2018-11-12T21:05:26.849Z,96150.11
2018-11-12T21:07:56.078Z,96150.76
2018-11-12T21:10:25.397Z,96149.81
2018-11-12T21:12:54.745Z,96151.33
2018-11-12T21:15:24.860Z,96143.20
2018-11-12T21:17:54.000Z,96140.48
2018-11-12T21:20:24.292Z,96149.55
2018-11-12T21:22:53.719Z,96142.55
2018-11-12T21:25:24.821Z,96139.06
2018-11-12T21:27:54.045Z,96135.69
2018-11-12T21:30:26.468Z,96136.72
2018-11-12T21:32:55.697Z,96126.61
2018-11-12T21:35:25.193Z,96122.55
2018-11-12T21:37:55.897Z,96129.33
2018-11-12T21:40:26.371Z,96126.80
2018-11-12T21:42:55.614Z,96126.91
2018-11-12T21:45:27.327Z,96122.98
2018-11-12T21:47:56.516Z,96122.52
2018-11-12T21:50:25.780Z,96122.52
2018-11-12T21:52:55.005Z,96121.46
2018-11-12T21:55:24.316Z,96119.86
2018-11-12T21:57:53.496Z,96120.12
2018-11-12T22:00:26.818Z,96117.78
2018-11-12T22:02:58.493Z,96118.84
2018-11-12T22:05:28.477Z,96115.68
2018-11-12T22:07:57.720Z,96119.00
2018-11-12T22:10:26.956Z,96121.67
2018-11-12T22:12:56.365Z,96122.23
2018-11-12T22:15:25.573Z,96131.06
2018-11-12T22:17:54.744Z,96124.88
2018-11-12T22:20:25.416Z,96119.81
2018-11-12T22:22:54.588Z,96123.13
2018-11-12T22:25:24.323Z,96127.00
2018-11-12T22:27:54.094Z,96126.11
2018-11-12T22:30:24.444Z,96124.64
2018-11-12T22:32:54.201Z,96136.47
2018-11-12T22:35:23.386Z,96134.35
2018-11-12T22:37:52.580Z,96133.23
2018-11-12T22:40:22.061Z,96138.75
2018-11-12T22:42:52.105Z,96132.08
2018-11-12T22:45:22.425Z,96137.36
2018-11-12T22:47:51.813Z,96138.94
2018-11-12T22:50:21.041Z,96136.17
2018-11-12T22:52:50.197Z,96131.30
2018-11-12T22:55:20.010Z,96134.36
2018-11-12T22:57:49.241Z,96134.84
2018-11-12T23:00:28.040Z,96138.66
2018-11-12T23:02:57.993Z,96141.39
2018-11-12T23:05:27.176Z,96136.57
2018-11-12T23:07:56.683Z,96140.76
2018-11-12T23:10:25.822Z,96137.27
2018-11-12T23:12:55.067Z,96142.69
2018-11-12T23:15:24.202Z,96140.95
2018-11-12T23:17:53.417Z,96141.56
2018-11-12T23:20:23.744Z,96146.02
2018-11-12T23:22:53.302Z,96147.80
2018-11-12T23:25:22.423Z,96154.78
2018-11-12T23:27:51.989Z,96154.41
2018-11-12T23:30:22.394Z,96150.34
2018-11-12T23:32:51.569Z,96140.09
2018-11-12T23:35:22.100Z,96141.73
2018-11-12T23:37:51.560Z,96135.06
2018-11-12T23:40:20.717Z,96142.25
2018-11-12T23:42:49.999Z,96137.77
2018-11-12T23:45:19.125Z,96131.67
2018-11-12T23:47:48.297Z,96123.98
2018-11-12T23:50:18.745Z,96127.09
2018-11-12T23:52:48.779Z,96121.19
2018-11-12T23:55:18.407Z,96115.52
2018-11-12T23:57:48.213Z,96119.58
